Dryden, Dryden Regional Airport (CYHD)

NameDryden Regional Airport
CityDryden
CountryCanada
ICAOCYHD
IATAYHD
Altitude413 m
CoordinatesGoogle Map
Live Air TrafficLiveATC.net
METARCYHD 181500Z AUTO 19010G17KT 9SM SCT022 BKN120 OVC150 M07/M09 A2978 RMK PRESRR SLP119
2018-12-18 15:00:00 Wind: South (190°) 5.14 m/s - Visibility: 14484.06 m - Temperature: -7 °C - Dew point: -9 °C - Humidity: 85.8% - Pressure: 1008.47 hPa
Statistics

The table below shows the detailed information of all flights to/from Dryden, Dryden Regional Airport (CYHD).